Time;durP1;ratioP1;P1;durP2;ratioP2;P2;SDS_P1;SDS_P2;PMS_P1;PMS_P2;Temp;Humidity;BMP_temperature;BMP_pressure;BME280_temperature;BME280_humidity;BME280_pressure;Samples;Min_cycle;Max_cycle;Signal;HPM_P1;HPM_P2
2023/05/04 00:00:55;;;;;;;6.65;2.00;;;;;;;;;;5108676;27;20398;-65
2023/05/04 00:03:21;;;;;;;7.55;1.92;;;;;;;;;;5109864;27;20047;-65
2023/05/04 00:05:47;;;;;;;6.55;1.70;;;;;;;;;;5111771;27;20051;-69
2023/05/04 00:08:13;;;;;;;15.75;2.85;;;;;;;;;;5111488;27;20068;-66
2023/05/04 00:10:39;;;;;;;3.85;1.83;;;;;;;;;;5110025;27;20055;-64
2023/05/04 00:13:05;;;;;;;6.97;1.90;;;;;;;;;;5110057;27;20494;-65
2023/05/04 00:15:31;;;;;;;9.40;1.92;;;;;;;;;;5108971;27;20061;-64
2023/05/04 00:17:57;;;;;;;6.07;1.63;;;;;;;;;;5111212;27;20455;-67
2023/05/04 00:20:23;;;;;;;6.53;1.75;;;;;;;;;;5118223;27;20115;-64
2023/05/04 00:22:49;;;;;;;10.68;1.92;;;;;;;;;;5112966;27;20605;-64
2023/05/04 00:25:15;;;;;;;11.93;2.13;;;;;;;;;;5112436;27;20055;-64
2023/05/04 00:27:41;;;;;;;5.80;1.40;;;;;;;;;;5109504;27;21022;-64
2023/05/04 00:30:10;;;;;;;6.32;1.70;;;;;;;;;;5109714;27;20389;-63
2023/05/04 00:32:36;;;;;;;6.35;1.60;;;;;;;;;;5110668;27;20070;-63
2023/05/04 00:35:07;;;;;;;7.65;2.00;;;;;;;;;;5112389;27;20054;-65
2023/05/04 00:37:34;;;;;;;5.38;1.67;;;;;;;;;;5111650;27;20053;-63
2023/05/04 00:40:00;;;;;;;11.00;1.90;;;;;;;;;;5109962;27;20406;-63
2023/05/04 00:42:26;;;;;;;7.70;1.80;;;;;;;;;;5111837;27;20054;-65
2023/05/04 00:44:54;;;;;;;8.20;2.22;;;;;;;;;;5094956;27;20175;-67
2023/05/04 00:47:21;;;;;;;7.07;1.60;;;;;;;;;;5109985;27;20047;-63
2023/05/04 00:49:48;;;;;;;6.55;1.70;;;;;;;;;;5110519;27;20086;-64
2023/05/04 00:52:15;;;;;;;5.95;1.83;;;;;;;;;;5110021;27;22264;-64
2023/05/04 00:54:41;;;;;;;6.70;1.70;;;;;;;;;;5109025;27;20066;-66
2023/05/04 00:57:07;;;;;;;7.68;1.63;;;;;;;;;;5110619;27;20107;-68
2023/05/04 00:59:33;;;;;;;7.70;1.90;;;;;;;;;;5112218;27;20050;-65
2023/05/04 01:01:59;;;;;;;7.97;1.70;;;;;;;;;;5107842;27;20058;-64
2023/05/04 01:04:27;;;;;;;7.57;1.70;;;;;;;;;;5110763;27;20410;-64
2023/05/04 01:07:18;;;;;;;5.30;1.80;;;;;;;;;;5107367;27;20099;-64
2023/05/04 01:10:06;;;;;;;9.63;1.70;;;;;;;;;;5106577;27;20054;-64
2023/05/04 01:12:47;;;;;;;5.60;1.92;;;;;;;;;;5110889;27;20059;-64
2023/05/04 01:15:15;;;;;;;5.47;1.60;;;;;;;;;;5112735;27;20051;-64
2023/05/04 01:17:41;;;;;;;4.72;1.63;;;;;;;;;;5107354;27;20051;-65
2023/05/04 01:20:08;;;;;;;6.65;1.63;;;;;;;;;;5111925;27;20511;-64
2023/05/04 01:22:37;;;;;;;7.60;1.48;;;;;;;;;;5117274;27;20473;-64
2023/05/04 01:25:06;;;;;;;7.72;1.67;;;;;;;;;;5110620;27;20050;-64
2023/05/04 01:27:54;;;;;;;8.23;2.33;;;;;;;;;;5111291;27;20138;-63
2023/05/04 01:30:24;;;;;;;7.15;1.80;;;;;;;;;;5110582;27;20058;-63
2023/05/04 01:32:51;;;;;;;4.75;1.60;;;;;;;;;;5107566;27;20054;-64
2023/05/04 01:35:18;;;;;;;8.50;1.70;;;;;;;;;;5111241;27;20051;-65
2023/05/04 01:37:44;;;;;;;8.80;1.88;;;;;;;;;;5112959;27;20058;-64
2023/05/04 01:40:10;;;;;;;5.72;1.90;;;;;;;;;;5110058;27;20514;-66
2023/05/04 01:42:38;;;;;;;7.80;2.05;;;;;;;;;;5111769;27;20061;-64
2023/05/04 01:45:07;;;;;;;12.73;2.15;;;;;;;;;;5116437;27;20054;-64
2023/05/04 01:47:33;;;;;;;8.13;2.30;;;;;;;;;;5089935;27;20501;-67
2023/05/04 01:50:04;;;;;;;10.65;2.35;;;;;;;;;;5092202;27;20502;-63
2023/05/04 01:52:30;;;;;;;8.23;2.30;;;;;;;;;;5109232;27;20062;-63
2023/05/04 01:54:57;;;;;;;14.50;2.72;;;;;;;;;;5108963;27;20062;-63
2023/05/04 01:57:22;;;;;;;7.35;2.30;;;;;;;;;;5112581;27;20407;-64
2023/05/04 01:59:49;;;;;;;10.07;3.05;;;;;;;;;;5110123;27;20490;-63
2023/05/04 02:02:14;;;;;;;9.35;3.22;;;;;;;;;;5109485;27;20171;-63
2023/05/04 02:04:40;;;;;;;11.35;3.17;;;;;;;;;;5109076;27;20050;-64
2023/05/04 02:07:07;;;;;;;12.32;3.20;;;;;;;;;;5104687;27;20034;-64
2023/05/04 02:09:34;;;;;;;7.90;3.15;;;;;;;;;;5108094;27;20104;-64
2023/05/04 02:12:02;;;;;;;8.80;3.28;;;;;;;;;;5092132;27;20064;-64
2023/05/04 02:14:29;;;;;;;11.73;4.07;;;;;;;;;;5108968;27;20054;-62
2023/05/04 02:16:55;;;;;;;9.50;3.33;;;;;;;;;;5110985;27;20143;-63
2023/05/04 02:19:21;;;;;;;10.48;3.75;;;;;;;;;;5111460;27;20950;-65
2023/05/04 02:21:47;;;;;;;9.45;3.67;;;;;;;;;;5114613;27;20051;-65
2023/05/04 02:24:13;;;;;;;9.82;3.28;;;;;;;;;;5108575;27;20059;-66
2023/05/04 02:26:39;;;;;;;9.43;3.20;;;;;;;;;;5108842;27;20055;-63
2023/05/04 02:29:05;;;;;;;9.77;3.50;;;;;;;;;;5108767;27;20043;-64
2023/05/04 02:31:33;;;;;;;6.10;2.72;;;;;;;;;;5110070;27;20050;-64
2023/05/04 02:34:00;;;;;;;10.13;3.30;;;;;;;;;;5108748;27;20078;-63
2023/05/04 02:36:26;;;;;;;7.45;2.90;;;;;;;;;;5108412;27;20035;-63
2023/05/04 02:38:53;;;;;;;8.88;3.53;;;;;;;;;;5108010;27;20973;-64
2023/05/04 02:41:19;;;;;;;9.48;3.40;;;;;;;;;;5109606;27;20065;-65
2023/05/04 02:43:46;;;;;;;5.53;2.70;;;;;;;;;;5110424;27;20501;-63
2023/05/04 02:46:13;;;;;;;11.23;3.10;;;;;;;;;;5111763;27;20043;-63
2023/05/04 02:48:39;;;;;;;13.38;2.70;;;;;;;;;;5109042;27;20050;-65
2023/05/04 02:51:05;;;;;;;8.73;2.60;;;;;;;;;;5109047;27;20054;-62
2023/05/04 02:53:31;;;;;;;12.18;2.10;;;;;;;;;;5091617;27;20493;-63
2023/05/04 02:55:56;;;;;;;5.82;2.15;;;;;;;;;;5107275;27;20035;-65
2023/05/04 02:58:23;;;;;;;7.45;1.80;;;;;;;;;;5109075;27;20055;-63
2023/05/04 03:00:53;;;;;;;5.32;2.00;;;;;;;;;;5091027;27;20103;-64
2023/05/04 03:03:19;;;;;;;16.48;2.72;;;;;;;;;;5108231;27;20059;-63
2023/05/04 03:05:45;;;;;;;5.85;2.25;;;;;;;;;;5109558;27;21160;-64
2023/05/04 03:08:12;;;;;;;6.63;2.25;;;;;;;;;;5107679;27;20111;-64
2023/05/04 03:10:37;;;;;;;5.15;2.20;;;;;;;;;;5108805;27;20055;-63
2023/05/04 03:13:04;;;;;;;9.65;2.22;;;;;;;;;;5109477;27;20085;-64
2023/05/04 03:15:32;;;;;;;6.78;2.25;;;;;;;;;;5112105;27;20448;-64
2023/05/04 03:17:58;;;;;;;8.43;2.40;;;;;;;;;;5111192;27;20043;-63
2023/05/04 03:20:24;;;;;;;9.65;2.35;;;;;;;;;;5113247;27;20115;-64
2023/05/04 03:22:50;;;;;;;9.27;2.30;;;;;;;;;;5119597;27;20051;-66
2023/05/04 03:25:17;;;;;;;7.18;2.33;;;;;;;;;;5112087;27;20070;-65
2023/05/04 03:27:52;;;;;;;7.93;2.13;;;;;;;;;;5112034;27;20702;-63
2023/05/04 03:30:18;;;;;;;6.07;2.50;;;;;;;;;;5113883;27;20417;-64
2023/05/04 03:32:44;;;;;;;8.75;2.15;;;;;;;;;;5112285;27;20059;-63
2023/05/04 03:35:10;;;;;;;11.30;2.60;;;;;;;;;;5111684;27;20051;-64
2023/05/04 03:37:36;;;;;;;7.10;1.98;;;;;;;;;;5113849;27;20047;-63
2023/05/04 03:40:02;;;;;;;4.80;2.10;;;;;;;;;;5109619;27;20055;-65
2023/05/04 03:42:28;;;;;;;6.82;2.58;;;;;;;;;;5109751;27;20055;-64
2023/05/04 03:44:55;;;;;;;10.02;2.70;;;;;;;;;;5115785;27;20215;-64
2023/05/04 03:47:23;;;;;;;7.93;2.70;;;;;;;;;;5114596;27;20114;-64
2023/05/04 03:49:49;;;;;;;10.70;2.88;;;;;;;;;;5114273;27;20061;-65
2023/05/04 03:52:15;;;;;;;9.45;2.78;;;;;;;;;;5088380;27;20074;-62
2023/05/04 03:54:42;;;;;;;9.00;2.38;;;;;;;;;;5112442;27;20059;-65
2023/05/04 03:57:08;;;;;;;5.22;2.47;;;;;;;;;;5110704;27;20062;-62
2023/05/04 03:59:35;;;;;;;7.15;2.22;;;;;;;;;;5110958;27;20046;-63
2023/05/04 04:02:01;;;;;;;6.65;2.50;;;;;;;;;;5112760;27;20130;-64
2023/05/04 04:04:27;;;;;;;12.63;2.50;;;;;;;;;;5112844;27;20061;-63
2023/05/04 04:06:53;;;;;;;10.55;2.50;;;;;;;;;;5095406;27;20059;-63
2023/05/04 04:09:19;;;;;;;8.52;2.80;;;;;;;;;;5094118;27;20043;-63
2023/05/04 04:11:46;;;;;;;6.43;2.58;;;;;;;;;;5110678;27;20135;-64
2023/05/04 04:14:12;;;;;;;8.68;2.50;;;;;;;;;;5109088;27;20393;-65
2023/05/04 04:16:38;;;;;;;9.82;2.70;;;;;;;;;;5111299;27;20047;-65
2023/05/04 04:19:05;;;;;;;9.43;2.70;;;;;;;;;;5115276;27;20096;-63
2023/05/04 04:21:31;;;;;;;8.35;2.60;;;;;;;;;;5110832;27;20507;-63
2023/05/04 04:23:57;;;;;;;7.95;2.53;;;;;;;;;;5108659;27;20051;-65
2023/05/04 04:26:24;;;;;;;8.68;2.30;;;;;;;;;;5111890;27;20047;-64
2023/05/04 04:28:50;;;;;;;6.07;2.30;;;;;;;;;;5111421;27;20579;-64
2023/05/04 04:31:17;;;;;;;10.88;2.60;;;;;;;;;;5112678;27;20051;-64
2023/05/04 04:33:43;;;;;;;4.88;2.30;;;;;;;;;;5107847;27;20309;-64
2023/05/04 04:36:11;;;;;;;8.77;2.80;;;;;;;;;;5110791;27;20043;-64
2023/05/04 04:38:38;;;;;;;10.02;2.97;;;;;;;;;;5111535;27;20059;-66
2023/05/04 04:41:05;;;;;;;11.00;2.75;;;;;;;;;;5093301;27;20053;-64
2023/05/04 04:43:32;;;;;;;10.25;2.53;;;;;;;;;;5111619;27;20659;-65
2023/05/04 04:45:58;;;;;;;8.40;2.70;;;;;;;;;;5110469;27;20560;-65
2023/05/04 04:48:24;;;;;;;12.93;2.80;;;;;;;;;;5109598;27;20055;-64
2023/05/04 04:50:51;;;;;;;11.40;2.70;;;;;;;;;;5111202;27;20050;-66
2023/05/04 04:53:18;;;;;;;12.13;2.88;;;;;;;;;;5106387;27;20248;-64
2023/05/04 04:55:45;;;;;;;14.15;3.10;;;;;;;;;;5109924;27;20059;-64
2023/05/04 04:58:11;;;;;;;11.48;2.95;;;;;;;;;;5109361;27;20074;-66
2023/05/04 05:00:37;;;;;;;10.48;2.80;;;;;;;;;;5109159;27;20069;-64
2023/05/04 05:03:03;;;;;;;15.85;3.42;;;;;;;;;;5113808;27;20050;-65
2023/05/04 05:05:30;;;;;;;12.55;3.42;;;;;;;;;;5111058;27;20348;-65
2023/05/04 05:07:57;;;;;;;5.80;2.45;;;;;;;;;;5107390;27;20058;-65
2023/05/04 05:10:23;;;;;;;9.55;2.90;;;;;;;;;;5108328;27;20057;-66
2023/05/04 05:12:49;;;;;;;10.38;3.10;;;;;;;;;;5089665;27;20054;-65
2023/05/04 05:15:17;;;;;;;10.77;3.50;;;;;;;;;;5108144;27;20056;-65
2023/05/04 05:17:42;;;;;;;7.85;2.97;;;;;;;;;;5093251;27;20550;-64
2023/05/04 05:20:10;;;;;;;13.88;4.00;;;;;;;;;;5118437;27;20108;-65
2023/05/04 05:22:37;;;;;;;16.13;3.72;;;;;;;;;;5124667;27;20039;-64
2023/05/04 05:25:25;;;;;;;12.82;3.38;;;;;;;;;;5115087;27;20050;-64
2023/05/04 05:27:53;;;;;;;10.38;3.22;;;;;;;;;;5101704;27;20051;-64
2023/05/04 05:30:19;;;;;;;10.55;3.28;;;;;;;;;;5109986;27;20081;-67
2023/05/04 05:32:46;;;;;;;14.40;4.00;;;;;;;;;;5105037;27;20046;-65
2023/05/04 05:35:12;;;;;;;16.83;3.85;;;;;;;;;;5084387;27;20066;-65
2023/05/04 05:37:38;;;;;;;14.38;3.70;;;;;;;;;;5109039;27;20506;-65
2023/05/04 05:40:06;;;;;;;12.80;3.72;;;;;;;;;;5089327;27;20426;-66
2023/05/04 05:42:32;;;;;;;15.60;3.67;;;;;;;;;;5107345;27;20051;-65
2023/05/04 05:45:00;;;;;;;12.93;3.78;;;;;;;;;;5110829;27;20054;-65
2023/05/04 05:47:26;;;;;;;10.18;3.33;;;;;;;;;;5108226;27;20452;-65
2023/05/04 05:49:53;;;;;;;10.68;3.80;;;;;;;;;;5107421;27;22045;-66
2023/05/04 05:52:20;;;;;;;9.77;3.20;;;;;;;;;;5107101;27;20422;-66
2023/05/04 05:54:46;;;;;;;14.05;3.15;;;;;;;;;;5107649;27;20641;-66
2023/05/04 05:57:11;;;;;;;13.38;3.45;;;;;;;;;;5105459;27;20117;-70
2023/05/04 05:59:41;;;;;;;10.13;3.47;;;;;;;;;;5105977;27;20392;-66
2023/05/04 06:02:07;;;;;;;9.00;3.00;;;;;;;;;;5099254;27;20059;-66
2023/05/04 06:04:33;;;;;;;8.25;3.47;;;;;;;;;;5099364;27;20055;-64
2023/05/04 06:07:00;;;;;;;14.13;3.72;;;;;;;;;;5105039;27;20080;-66
2023/05/04 06:09:26;;;;;;;14.80;3.60;;;;;;;;;;5103577;27;20059;-65
2023/05/04 06:11:52;;;;;;;20.98;3.80;;;;;;;;;;5108452;27;20099;-66
2023/05/04 06:14:21;;;;;;;13.48;3.85;;;;;;;;;;5105462;27;20147;-64
2023/05/04 06:16:46;;;;;;;15.75;4.10;;;;;;;;;;5108729;27;20476;-66
2023/05/04 06:19:13;;;;;;;16.15;3.20;;;;;;;;;;5103372;27;20073;-68
2023/05/04 06:22:19;;;;;;;9.95;3.70;;;;;;;;;;5104395;27;20051;-66
2023/05/04 06:26:01;;;;;;;17.25;3.60;;;;;;;;;;5099409;27;20418;-69
2023/05/04 06:29:41;;;;;;;11.75;3.40;;;;;;;;;;5106775;27;20043;-71
2023/05/04 06:33:22;;;;;;;22.20;4.50;;;;;;;;;;5106127;27;20046;-69
2023/05/04 06:37:05;;;;;;;14.43;4.05;;;;;;;;;;5108490;27;20103;-68
2023/05/04 06:40:46;;;;;;;11.77;3.58;;;;;;;;;;5106394;27;20077;-69
2023/05/04 06:44:28;;;;;;;11.88;4.15;;;;;;;;;;5105360;27;20156;-71
2023/05/04 06:48:09;;;;;;;12.32;3.42;;;;;;;;;;5112538;27;20050;-70
2023/05/04 06:51:51;;;;;;;18.92;4.05;;;;;;;;;;5108341;27;20047;-68
2023/05/04 06:55:32;;;;;;;15.40;4.07;;;;;;;;;;5109786;27;20086;-70
2023/05/04 06:59:19;;;;;;;23.10;4.43;;;;;;;;;;5112133;27;20058;-68
2023/05/04 07:02:59;;;;;;;16.60;4.00;;;;;;;;;;5109259;27;20182;-70
2023/05/04 07:06:39;;;;;;;15.88;3.80;;;;;;;;;;5112211;27;20335;-70
2023/05/04 07:10:21;;;;;;;15.80;3.90;;;;;;;;;;5109066;27;20046;-70
2023/05/04 07:14:01;;;;;;;15.68;7.18;;;;;;;;;;5111853;27;20164;-71
2023/05/04 07:17:41;;;;;;;12.35;3.97;;;;;;;;;;5110986;27;20039;-71
2023/05/04 07:21:21;;;;;;;15.52;4.18;;;;;;;;;;5113149;27;20071;-71
2023/05/04 07:25:03;;;;;;;13.18;4.53;;;;;;;;;;5111072;27;20472;-76
2023/05/04 07:28:04;;;;;;;11.68;4.13;;;;;;;;;;5109253;27;20043;-70
2023/05/04 07:30:31;;;;;;;15.80;3.60;;;;;;;;;;5114368;27;20403;-72
2023/05/04 07:32:56;;;;;;;17.23;3.90;;;;;;;;;;5087854;27;20051;-69
2023/05/04 07:35:23;;;;;;;15.80;4.22;;;;;;;;;;5089024;27;20432;-70
2023/05/04 07:37:49;;;;;;;14.55;4.20;;;;;;;;;;5110458;27;20103;-69
2023/05/04 07:40:15;;;;;;;10.95;3.88;;;;;;;;;;5111203;27;20150;-70
2023/05/04 07:42:41;;;;;;;15.30;4.35;;;;;;;;;;5110443;27;20055;-71
2023/05/04 07:45:10;;;;;;;14.95;4.15;;;;;;;;;;5109762;27;20828;-69
2023/05/04 07:47:36;;;;;;;14.73;4.10;;;;;;;;;;5110752;27;20610;-72
2023/05/04 07:50:03;;;;;;;12.25;4.40;;;;;;;;;;5108233;27;20470;-72
2023/05/04 07:52:31;;;;;;;17.95;5.28;;;;;;;;;;5089978;27;20047;-69
2023/05/04 07:54:58;;;;;;;17.48;4.57;;;;;;;;;;5106610;27;20395;-71
2023/05/04 07:57:24;;;;;;;15.30;4.45;;;;;;;;;;5110381;27;20474;-72
2023/05/04 07:59:54;;;;;;;13.93;3.72;;;;;;;;;;5111247;27;20073;-71
2023/05/04 08:02:21;;;;;;;20.52;4.10;;;;;;;;;;5111018;27;20305;-72
2023/05/04 08:04:47;;;;;;;17.25;4.65;;;;;;;;;;5110380;27;20057;-71
2023/05/04 08:07:15;;;;;;;13.00;3.95;;;;;;;;;;5109560;27;20039;-74
2023/05/04 08:09:43;;;;;;;20.60;3.92;;;;;;;;;;5110938;27;20047;-72
2023/05/04 08:12:11;;;;;;;17.67;3.92;;;;;;;;;;5108801;27;20168;-73
2023/05/04 08:14:38;;;;;;;15.48;3.55;;;;;;;;;;5112402;27;20507;-72
2023/05/04 08:17:04;;;;;;;12.57;3.20;;;;;;;;;;5109633;27;20741;-71
2023/05/04 08:19:31;;;;;;;15.88;3.35;;;;;;;;;;5118806;27;20248;-73
2023/05/04 08:21:57;;;;;;;14.20;3.25;;;;;;;;;;5109288;27;20112;-71
2023/05/04 08:24:23;;;;;;;11.13;3.08;;;;;;;;;;5110918;27;20051;-74
2023/05/04 08:26:50;;;;;;;11.88;3.85;;;;;;;;;;5112698;27;20691;-72
2023/05/04 08:29:16;;;;;;;10.50;3.10;;;;;;;;;;5110400;27;20062;-71
2023/05/04 08:31:41;;;;;;;9.90;2.88;;;;;;;;;;5109908;27;20419;-70
2023/05/04 08:34:08;;;;;;;11.95;2.85;;;;;;;;;;5120573;27;20054;-73
2023/05/04 08:36:34;;;;;;;11.52;3.67;;;;;;;;;;5123087;27;20043;-80
2023/05/04 08:39:00;;;;;;;9.07;3.40;;;;;;;;;;5109830;27;20035;-77
2023/05/04 08:41:26;;;;;;;13.57;3.72;;;;;;;;;;5116180;27;20066;-77
2023/05/04 08:43:53;;;;;;;11.55;3.30;;;;;;;;;;5119344;27;20054;-78
2023/05/04 08:46:19;;;;;;;11.00;3.15;;;;;;;;;;5112621;27;20465;-69
2023/05/04 08:49:10;;;;;;;12.68;3.00;;;;;;;;;;5110881;27;20046;-70
2023/05/04 08:51:37;;;;;;;39.13;4.03;;;;;;;;;;5108051;27;20068;-71
2023/05/04 08:54:08;;;;;;;22.15;2.97;;;;;;;;;;5112597;27;21808;-74
2023/05/04 08:56:37;;;;;;;19.45;4.43;;;;;;;;;;5110335;27;20256;-70
2023/05/04 08:59:04;;;;;;;20.73;4.18;;;;;;;;;;5109496;27;20423;-67
2023/05/04 09:01:31;;;;;;;20.52;3.72;;;;;;;;;;5109780;27;20051;-65
2023/05/04 09:04:00;;;;;;;17.38;3.83;;;;;;;;;;5105557;27;20053;-66
2023/05/04 09:06:27;;;;;;;16.42;4.07;;;;;;;;;;5084070;27;20039;-66
2023/05/04 09:08:53;;;;;;;20.60;4.25;;;;;;;;;;5087664;27;20069;-65
2023/05/04 09:11:20;;;;;;;17.10;4.25;;;;;;;;;;5105556;27;20422;-66
2023/05/04 09:13:46;;;;;;;14.77;4.22;;;;;;;;;;5086110;27;20148;-65
2023/05/04 09:16:13;;;;;;;15.68;4.88;;;;;;;;;;5084312;27;20055;-66
2023/05/04 09:18:41;;;;;;;22.65;5.63;;;;;;;;;;5107633;27;20043;-68
2023/05/04 09:21:08;;;;;;;17.95;5.03;;;;;;;;;;5108444;27;20069;-65
2023/05/04 09:23:52;;;;;;;27.80;5.57;;;;;;;;;;5112554;27;20436;-66
2023/05/04 09:26:32;;;;;;;20.60;5.05;;;;;;;;;;5088771;27;21265;-66
2023/05/04 09:29:14;;;;;;;16.98;4.40;;;;;;;;;;5108208;27;20054;-66
2023/05/04 09:31:47;;;;;;;17.73;4.75;;;;;;;;;;5108506;27;20136;-65
2023/05/04 09:34:13;;;;;;;17.70;4.80;;;;;;;;;;5107267;27;20055;-65
2023/05/04 09:36:41;;;;;;;14.40;4.97;;;;;;;;;;5107036;27;20216;-65
2023/05/04 09:39:14;;;;;;;12.65;3.72;;;;;;;;;;5105012;27;20534;-65
2023/05/04 09:41:41;;;;;;;16.52;4.63;;;;;;;;;;5105785;27;20055;-65
2023/05/04 09:44:21;;;;;;;17.85;3.90;;;;;;;;;;5106344;27;20047;-65
2023/05/04 09:46:57;;;;;;;15.88;3.92;;;;;;;;;;5087940;27;20136;-66
2023/05/04 09:49:36;;;;;;;12.25;3.10;;;;;;;;;;5106113;27;20051;-65
2023/05/04 09:52:04;;;;;;;9.77;2.70;;;;;;;;;;5108427;27;20070;-66
2023/05/04 09:54:35;;;;;;;13.32;3.22;;;;;;;;;;5105015;27;20174;-66
2023/05/04 09:57:13;;;;;;;8.85;2.53;;;;;;;;;;5103448;27;20057;-69
2023/05/04 09:59:39;;;;;;;12.25;2.83;;;;;;;;;;5085576;27;20055;-66
2023/05/04 10:02:06;;;;;;;8.55;2.75;;;;;;;;;;5106253;27;20577;-67
2023/05/04 10:04:34;;;;;;;12.80;3.05;;;;;;;;;;5104529;27;20247;-68
2023/05/04 10:07:04;;;;;;;11.70;3.13;;;;;;;;;;5106439;27;20039;-67
2023/05/04 10:09:31;;;;;;;12.57;3.35;;;;;;;;;;5105321;27;20123;-67
2023/05/04 10:12:04;;;;;;;15.70;2.97;;;;;;;;;;5092297;28;20039;-67
2023/05/04 10:14:33;;;;;;;13.52;2.42;;;;;;;;;;5114035;27;20126;-66
2023/05/04 10:17:22;;;;;;;10.90;2.72;;;;;;;;;;5107446;27;20080;-68
2023/05/04 10:20:14;;;;;;;9.13;2.72;;;;;;;;;;5117289;27;20059;-67
2023/05/04 10:22:58;;;;;;;11.60;2.80;;;;;;;;;;5100317;27;20122;-68
2023/05/04 10:25:35;;;;;;;13.00;2.78;;;;;;;;;;5110114;27;20050;-66
2023/05/04 10:28:09;;;;;;;8.38;2.92;;;;;;;;;;5113348;27;20081;-68
2023/05/04 10:30:38;;;;;;;11.70;2.88;;;;;;;;;;5113728;27;20173;-66
2023/05/04 10:33:04;;;;;;;12.13;3.08;;;;;;;;;;5111279;27;20509;-68
2023/05/04 10:35:31;;;;;;;10.55;2.78;;;;;;;;;;5112077;27;20062;-67
2023/05/04 10:37:57;;;;;;;12.75;2.75;;;;;;;;;;5113058;27;20092;-67
2023/05/04 10:40:37;;;;;;;9.75;2.80;;;;;;;;;;5107725;27;20146;-68
2023/05/04 10:43:04;;;;;;;13.65;2.95;;;;;;;;;;5111300;27;20240;-67
2023/05/04 10:45:41;;;;;;;8.05;2.67;;;;;;;;;;5111180;27;20055;-67
2023/05/04 10:48:08;;;;;;;10.38;3.20;;;;;;;;;;5088430;27;20191;-67
2023/05/04 10:50:48;;;;;;;10.98;3.90;;;;;;;;;;5110549;27;20543;-67
2023/05/04 10:53:16;;;;;;;9.02;3.42;;;;;;;;;;5108937;27;20054;-67
2023/05/04 10:55:46;;;;;;;5.90;2.95;;;;;;;;;;5108065;27;20394;-67
2023/05/04 10:58:17;;;;;;;12.02;3.33;;;;;;;;;;5109542;27;20499;-67
2023/05/04 11:00:46;;;;;;;11.68;3.20;;;;;;;;;;5109472;27;20055;-66
2023/05/04 11:03:13;;;;;;;13.93;4.00;;;;;;;;;;5109546;27;20055;-68
2023/05/04 11:05:47;;;;;;;12.23;2.72;;;;;;;;;;5107355;27;20054;-67
2023/05/04 11:08:25;;;;;;;16.33;3.42;;;;;;;;;;5110442;27;20418;-67
2023/05/04 11:11:02;;;;;;;11.05;3.13;;;;;;;;;;5110439;27;20425;-70
2023/05/04 11:13:30;;;;;;;5.88;2.33;;;;;;;;;;5107362;27;20399;-69
2023/05/04 11:15:57;;;;;;;7.45;2.78;;;;;;;;;;5110014;27;20121;-67
2023/05/04 11:18:33;;;;;;;11.90;3.17;;;;;;;;;;5108475;27;20051;-68
2023/05/04 11:21:00;;;;;;;7.88;2.47;;;;;;;;;;5117892;27;20355;-70
2023/05/04 11:23:27;;;;;;;7.43;2.60;;;;;;;;;;5111324;27;20043;-70
2023/05/04 11:25:56;;;;;;;7.05;2.30;;;;;;;;;;5105038;27;20282;-68
2023/05/04 11:28:39;;;;;;;6.75;2.45;;;;;;;;;;5109436;27;20055;-67
2023/05/04 11:31:16;;;;;;;13.50;5.57;;;;;;;;;;5111663;27;20055;-69
2023/05/04 11:33:47;;;;;;;14.13;2.72;;;;;;;;;;5108223;27;20539;-69
2023/05/04 11:36:13;;;;;;;7.25;2.90;;;;;;;;;;5108577;27;20046;-70
2023/05/04 11:38:41;;;;;;;6.43;2.80;;;;;;;;;;5112630;27;20046;-70
2023/05/04 11:41:09;;;;;;;9.85;2.92;;;;;;;;;;5108582;27;20051;-72
2023/05/04 11:43:37;;;;;;;7.68;2.50;;;;;;;;;;5109645;27;20051;-70
2023/05/04 11:46:05;;;;;;;8.93;2.40;;;;;;;;;;5109760;27;20047;-70
2023/05/04 11:48:32;;;;;;;8.32;2.33;;;;;;;;;;5109845;27;20055;-68
2023/05/04 11:50:58;;;;;;;11.40;2.67;;;;;;;;;;5109810;27;20062;-68
2023/05/04 11:53:25;;;;;;;6.65;2.67;;;;;;;;;;5110265;27;20240;-70
2023/05/04 11:55:56;;;;;;;6.25;2.35;;;;;;;;;;5107692;27;20051;-71
2023/05/04 11:58:26;;;;;;;10.93;3.00;;;;;;;;;;5106952;27;20082;-69
2023/05/04 12:00:57;;;;;;;9.93;2.65;;;;;;;;;;5109912;27;20050;-71
2023/05/04 12:03:28;;;;;;;6.97;2.58;;;;;;;;;;5109176;27;20055;-68
2023/05/04 12:05:56;;;;;;;10.75;2.33;;;;;;;;;;5107795;27;20108;-68
2023/05/04 12:08:30;;;;;;;6.68;2.25;;;;;;;;;;5108290;27;20407;-70
2023/05/04 12:11:14;;;;;;;6.93;2.10;;;;;;;;;;5107294;27;20062;-69
2023/05/04 12:13:41;;;;;;;5.85;2.40;;;;;;;;;;5108019;27;20425;-68
2023/05/04 12:16:12;;;;;;;8.85;2.42;;;;;;;;;;5107766;27;20127;-69
2023/05/04 12:18:38;;;;;;;9.07;2.22;;;;;;;;;;5110467;27;20130;-69
2023/05/04 12:21:17;;;;;;;8.85;2.65;;;;;;;;;;5089910;27;20047;-70
2023/05/04 12:23:44;;;;;;;7.03;2.75;;;;;;;;;;5109300;27;20050;-68
2023/05/04 12:26:11;;;;;;;6.45;2.60;;;;;;;;;;5106363;27;20046;-68
2023/05/04 12:28:39;;;;;;;9.38;2.92;;;;;;;;;;5107601;27;20560;-69
2023/05/04 12:31:08;;;;;;;8.93;3.20;;;;;;;;;;5108155;27;20708;-68
2023/05/04 12:33:34;;;;;;;10.18;3.40;;;;;;;;;;5107204;27;20086;-70
2023/05/04 12:36:03;;;;;;;12.38;3.80;;;;;;;;;;5089059;27;20067;-68
2023/05/04 12:38:29;;;;;;;9.80;3.83;;;;;;;;;;5113652;27;20039;-67
2023/05/04 12:41:01;;;;;;;13.43;4.45;;;;;;;;;;5086434;27;20417;-69
2023/05/04 12:43:26;;;;;;;10.77;3.92;;;;;;;;;;5106234;27;20049;-68
2023/05/04 12:45:53;;;;;;;11.43;4.57;;;;;;;;;;5108566;27;20059;-69
2023/05/04 12:48:22;;;;;;;11.57;4.22;;;;;;;;;;5089048;27;20721;-68
2023/05/04 12:50:49;;;;;;;8.88;4.13;;;;;;;;;;5091210;27;20111;-70
2023/05/04 12:53:16;;;;;;;11.52;4.13;;;;;;;;;;5106776;27;20046;-68
2023/05/04 12:55:42;;;;;;;9.77;3.40;;;;;;;;;;5106036;27;20892;-68
2023/05/04 12:58:09;;;;;;;10.82;4.15;;;;;;;;;;5105143;27;20071;-68
2023/05/04 13:00:36;;;;;;;12.95;4.43;;;;;;;;;;5106846;27;20545;-69
2023/05/04 13:03:03;;;;;;;11.73;4.10;;;;;;;;;;5107977;27;20057;-68
2023/05/04 13:05:29;;;;;;;9.55;3.13;;;;;;;;;;5087344;27;20505;-68
2023/05/04 13:07:56;;;;;;;7.00;2.60;;;;;;;;;;5108329;27;20047;-70
2023/05/04 13:10:23;;;;;;;7.10;2.72;;;;;;;;;;5107858;27;20043;-69
2023/05/04 13:12:50;;;;;;;10.40;2.70;;;;;;;;;;5108232;27;20701;-69
2023/05/04 13:15:17;;;;;;;9.85;2.65;;;;;;;;;;5085927;27;20055;-67
2023/05/04 13:17:42;;;;;;;11.70;2.75;;;;;;;;;;5084282;27;20071;-70
2023/05/04 13:20:11;;;;;;;6.47;2.60;;;;;;;;;;5094221;27;20051;-70
2023/05/04 13:22:37;;;;;;;11.75;2.70;;;;;;;;;;5109026;27;20046;-70
2023/05/04 13:25:04;;;;;;;11.07;2.83;;;;;;;;;;5105536;27;20097;-67
2023/05/04 13:27:29;;;;;;;6.68;2.10;;;;;;;;;;5108456;27;20069;-69
2023/05/04 13:30:02;;;;;;;9.57;2.20;;;;;;;;;;5089570;27;20046;-69
2023/05/04 13:32:29;;;;;;;7.68;2.28;;;;;;;;;;5110369;27;20209;-69
2023/05/04 13:34:57;;;;;;;8.77;2.38;;;;;;;;;;5111236;27;20043;-70
2023/05/04 13:37:26;;;;;;;7.60;2.78;;;;;;;;;;5113849;27;20415;-69
2023/05/04 13:39:54;;;;;;;9.43;2.53;;;;;;;;;;5107658;27;20047;-68
2023/05/04 13:42:20;;;;;;;8.50;2.55;;;;;;;;;;5106465;27;20615;-70
2023/05/04 13:44:47;;;;;;;9.60;2.42;;;;;;;;;;5085890;27;21411;-68
2023/05/04 13:47:13;;;;;;;7.60;2.38;;;;;;;;;;5107744;27;20057;-68
2023/05/04 13:49:41;;;;;;;5.90;2.30;;;;;;;;;;5110917;27;20402;-71
2023/05/04 13:52:07;;;;;;;7.32;2.10;;;;;;;;;;5108595;27;20243;-68
2023/05/04 13:54:34;;;;;;;5.50;2.20;;;;;;;;;;5111164;27;20058;-70
2023/05/04 13:57:01;;;;;;;6.50;2.30;;;;;;;;;;5105774;27;20040;-68
2023/05/04 13:59:30;;;;;;;12.88;2.60;;;;;;;;;;5107701;27;20050;-70
2023/05/04 14:01:56;;;;;;;7.28;2.47;;;;;;;;;;5108707;27;20057;-70
2023/05/04 14:04:22;;;;;;;5.90;2.17;;;;;;;;;;5108895;27;20052;-71
2023/05/04 14:06:50;;;;;;;9.27;1.85;;;;;;;;;;5107276;27;20529;-69
2023/05/04 14:09:20;;;;;;;7.82;2.20;;;;;;;;;;5105959;27;20077;-69
2023/05/04 14:11:46;;;;;;;6.28;1.90;;;;;;;;;;5107942;27;20122;-69
2023/05/04 14:14:15;;;;;;;6.75;1.95;;;;;;;;;;5106754;27;20051;-71
2023/05/04 14:16:42;;;;;;;5.78;2.22;;;;;;;;;;5108370;27;20110;-70
2023/05/04 14:19:12;;;;;;;6.75;1.90;;;;;;;;;;5109770;27;20082;-71
2023/05/04 14:21:38;;;;;;;7.15;2.33;;;;;;;;;;5114012;27;20043;-72
2023/05/04 14:24:07;;;;;;;6.65;2.20;;;;;;;;;;5109545;27;20915;-70
2023/05/04 14:26:34;;;;;;;6.53;2.22;;;;;;;;;;5108665;27;20117;-69
2023/05/04 14:29:01;;;;;;;7.60;2.35;;;;;;;;;;5110422;27;20062;-69
2023/05/04 14:31:26;;;;;;;8.63;2.03;;;;;;;;;;5114267;27;20035;-72
2023/05/04 14:34:07;;;;;;;7.43;2.67;;;;;;;;;;5102448;27;20121;-68
2023/05/04 14:36:33;;;;;;;6.28;2.30;;;;;;;;;;5105863;27;20131;-70
2023/05/04 14:39:01;;;;;;;9.90;2.70;;;;;;;;;;5114440;27;20048;-71
2023/05/04 14:41:32;;;;;;;8.38;2.60;;;;;;;;;;5086522;28;20484;-68
2023/05/04 14:44:00;;;;;;;10.30;2.60;;;;;;;;;;5110502;27;20102;-71
2023/05/04 14:46:29;;;;;;;7.07;2.72;;;;;;;;;;5115582;27;20058;-76
2023/05/04 14:48:55;;;;;;;8.68;2.53;;;;;;;;;;5114399;27;20055;-74
2023/05/04 14:51:22;;;;;;;8.38;2.20;;;;;;;;;;5109814;27;20066;-74
2023/05/04 14:53:49;;;;;;;14.15;2.80;;;;;;;;;;5113342;27;20059;-76
2023/05/04 14:56:55;;;;;;;11.70;2.13;;;;;;;;;;5115221;27;22449;-72
2023/05/04 15:00:37;;;;;;;10.77;2.15;;;;;;;;;;5112137;27;20066;-74
2023/05/04 15:04:17;;;;;;;10.45;2.70;;;;;;;;;;5114429;27;20043;-74
2023/05/04 15:08:03;;;;;;;13.65;2.10;;;;;;;;;;5114481;27;20055;-74